Time;durP1;ratioP1;P1;durP2;ratioP2;P2;SDS_P1;SDS_P2;PMS_P1;PMS_P2;Temp;Humidity;BMP_temperature;BMP_pressure;BME280_temperature;BME280_humidity;BME280_pressure;Samples;Min_cycle;Max_cycle;Signal;HPM_P1;HPM_P2
2021/08/20 00:00:50;;;;;;;20.90;12.52;;;;;;;-142.75;80.45;76906.91;5017109;28;19917;-78
2021/08/20 00:03:15;;;;;;;;;;;;;;;-142.75;80.36;76875.41;5019207;28;20048;-79
2021/08/20 00:05:40;;;;;;;20.17;12.40;;;;;;;-142.75;80.19;76891.16;5026448;28;19962;-79
2021/08/20 00:08:06;;;;;;;;;;;;;;;-142.75;80.17;76883.28;5058207;28;20071;-77
2021/08/20 00:10:32;;;;;;;22.05;12.18;;;;;;;-142.75;80.08;76871.47;5020780;28;20011;-78
2021/08/20 00:12:57;;;;;;;;;;;;;;;-142.75;80.12;76875.41;5015790;28;20080;-78
2021/08/20 00:15:22;;;;;;;21.33;11.68;;;;;;;-142.75;80.29;76875.41;5022084;28;20271;-79
2021/08/20 00:17:47;;;;;;;;;;;;;;;-142.75;80.20;76867.53;5014521;28;20037;-78
2021/08/20 00:20:13;;;;;;;20.08;12.10;;;;;;;-142.75;80.20;76869.50;5022796;28;19913;-78
2021/08/20 00:22:38;;;;;;;;;;;;;;;-142.75;80.10;76857.69;5015097;28;20441;-79
2021/08/20 00:25:04;;;;;;;20.08;12.95;;;;;;;-142.75;79.93;76861.63;5016267;28;19920;-80
2021/08/20 00:27:29;;;;;;;;;;;;;;;-142.75;79.95;76859.66;5017597;28;20112;-78
2021/08/20 00:29:54;;;;;;;20.55;13.20;;;;;;;-142.75;80.03;76861.63;5019417;28;19912;-78
2021/08/20 00:32:20;;;;;;;;;;;;;;;-142.75;80.14;76859.66;5020187;28;20030;-78
2021/08/20 00:34:45;;;;;;;28.58;14.73;;;;;;;-142.75;80.38;76859.66;5021336;28;19924;-78
2021/08/20 00:37:10;;;;;;;;;;;;;;;-142.75;80.21;76859.66;5017756;28;20395;-77
2021/08/20 00:39:39;;;;;;;23.38;12.90;;;;;;;-142.75;80.36;76857.69;5048299;28;19958;-78
2021/08/20 00:42:07;;;;;;;26.58;13.73;;;;;;;-142.75;80.26;76863.59;5012360;28;20554;-79
2021/08/20 00:44:33;;;;;;;20.13;13.77;;;;;;;-142.75;80.30;76871.47;5055922;28;20017;-78
2021/08/20 00:46:58;;;;;;;24.23;14.15;;;;;;;-142.75;80.25;76873.44;5025702;28;20025;-78
2021/08/20 00:49:23;;;;;;;;;;;;;;;-142.75;80.34;76875.41;5043107;28;20108;-78
2021/08/20 00:51:48;;;;;;;22.80;13.88;;;;;;;-142.75;80.32;76877.38;5016966;28;19913;-79
2021/08/20 00:54:14;;;;;;;;;;;;;;;-142.75;80.20;76877.38;5017312;28;20103;-79
2021/08/20 00:56:41;;;;;;;19.73;12.80;;;;;;;-142.75;80.14;76881.31;5027765;28;20289;-78
2021/08/20 00:59:08;;;;;;;28.23;15.52;;;;;;;-142.75;80.26;76881.31;5019568;28;20464;-79
2021/08/20 01:01:34;;;;;;;20.83;13.38;;;;;;;-142.75;80.63;76887.22;5018585;28;20034;-78
2021/08/20 01:04:00;;;;;;;21.60;14.63;;;;;;;-142.75;80.75;76885.25;5045322;28;20570;-79
2021/08/20 01:06:29;;;;;;;24.20;14.98;;;;;;;-142.75;81.14;76887.22;5071806;28;20104;-79
2021/08/20 01:08:55;;;;;;;24.02;15.23;;;;;;;-142.75;81.48;76883.28;5038541;28;20511;-79
2021/08/20 01:11:23;;;;;;;28.10;14.82;;;;;;;-142.75;81.87;76865.56;5020412;28;20224;-78
2021/08/20 01:13:48;;;;;;;27.13;15.25;;;;;;;-142.75;81.83;76847.84;5020532;28;20026;-78
2021/08/20 01:16:13;;;;;;;23.33;14.73;;;;;;;-142.75;81.66;76838.00;5017906;28;20034;-79
2021/08/20 01:18:40;;;;;;;;;;;;;;;-142.75;81.75;76826.19;5020660;28;20033;-77
2021/08/20 01:21:11;;;;;;;28.97;17.33;;;;;;;-142.75;81.58;76816.34;5013306;28;20010;-79
2021/08/20 01:23:37;;;;;;;26.55;15.93;;;;;;;-142.75;81.48;76810.44;5016611;28;20627;-78
2021/08/20 01:26:03;;;;;;;;;;;;;;;-142.75;81.45;76814.38;5025027;28;20032;-78
2021/08/20 01:28:29;;;;;;;28.83;15.95;;;;;;;-142.75;81.58;76818.31;5020643;28;19914;-77
2021/08/20 01:31:02;;;;;;;;;;;;;;;-142.75;81.45;76814.38;5046107;28;20030;-78
2021/08/20 01:33:28;;;;;;;23.23;16.30;;;;;;;-142.75;81.54;76806.50;5014789;28;19917;-78
2021/08/20 01:35:54;;;;;;;25.27;16.65;;;;;;;-142.75;81.35;76812.41;5015282;28;20117;-77
2021/08/20 01:38:19;;;;;;;24.77;16.70;;;;;;;-142.75;81.48;76812.41;5019082;28;20065;-78
2021/08/20 01:40:45;;;;;;;;;;;;;;;-142.75;81.79;76820.28;5016375;28;20025;-77
2021/08/20 01:43:10;;;;;;;27.92;16.50;;;;;;;-142.75;82.01;76820.28;5019730;28;19913;-77
2021/08/20 01:45:36;;;;;;;;;;;;;;;-142.75;81.89;76816.34;5038944;28;20022;-78
2021/08/20 01:48:01;;;;;;;27.33;16.55;;;;;;;-142.75;81.97;76814.38;5019294;28;19936;-80
2021/08/20 01:50:27;;;;;;;;;;;;;;;-142.75;81.99;76810.44;5014749;28;20029;-78
2021/08/20 01:52:52;;;;;;;28.55;16.40;;;;;;;-142.75;82.28;76806.50;5048475;28;19924;-78
2021/08/20 01:55:17;;;;;;;;;;;;;;;-142.75;82.12;76802.56;5033648;28;20026;-78
2021/08/20 01:57:44;;;;;;;26.48;16.08;;;;;;;-142.75;82.19;76796.69;5021743;28;19913;-79
2021/08/20 02:00:10;;;;;;;26.52;17.08;;;;;;;-142.75;82.51;76800.63;5019246;28;20030;-78
2021/08/20 02:02:36;;;;;;;27.13;18.38;;;;;;;-142.75;82.73;76804.53;5048066;28;20022;-79
2021/08/20 02:05:01;;;;;;;;;;;;;;;-142.75;82.88;76798.66;5018404;28;20061;-78
2021/08/20 02:07:27;;;;;;;26.77;17.10;;;;;;;-142.75;83.15;76800.63;5046204;28;19917;-78
2021/08/20 02:09:52;;;;;;;;;;;;;;;-142.75;83.20;76796.69;5017963;28;20102;-77
2021/08/20 02:12:18;;;;;;;28.27;17.80;;;;;;;-142.75;83.48;76786.84;5020341;28;19914;-78
2021/08/20 02:14:43;;;;;;;;;;;;;;;-142.75;83.77;76782.91;5030559;28;20049;-77
2021/08/20 02:17:08;;;;;;;35.85;18.33;;;;;;;-142.75;83.90;76786.84;5064585;28;19919;-78
2021/08/20 02:19:34;;;;;;;;;;;;;;;-142.75;83.78;76775.03;5016095;28;20026;-78
2021/08/20 02:22:00;;;;;;;32.40;18.25;;;;;;;-142.75;83.73;76780.94;5019342;28;19913;-79
2021/08/20 02:24:25;;;;;;;;;;;;;;;-142.75;83.77;76769.13;5018796;28;20514;-79
2021/08/20 02:26:51;;;;;;;27.75;17.10;;;;;;;-142.75;83.84;76775.03;5015669;28;19917;-80
2021/08/20 02:29:16;;;;;;;;;;;;;;;-142.75;83.66;76778.97;5039155;28;20045;-79
2021/08/20 02:31:41;;;;;;;26.98;17.88;;;;;;;-142.75;83.84;76790.78;5043101;28;20004;-78
2021/08/20 02:34:07;;;;;;;;;;;;;;;-142.75;83.86;76778.97;5019158;28;20030;-78
2021/08/20 02:36:32;;;;;;;29.95;18.92;;;;;;;-142.75;84.02;76782.91;5017650;28;19935;-79
2021/08/20 02:38:57;;;;;;;;;;;;;;;-142.75;84.11;76773.06;5024900;28;20038;-80
2021/08/20 02:41:24;;;;;;;26.58;17.90;;;;;;;-142.75;84.43;76780.94;5021438;28;20382;-79
2021/08/20 02:43:53;;;;;;;29.85;19.25;;;;;;;-142.75;84.47;76773.06;5023862;28;20017;-79
2021/08/20 02:46:18;;;;;;;33.55;18.90;;;;;;;-142.75;84.42;76769.13;5022840;28;20045;-78
2021/08/20 02:48:43;;;;;;;;;;;;;;;-142.75;84.53;76751.41;5027129;28;20025;-78
2021/08/20 02:51:09;;;;;;;31.58;20.90;;;;;;;-142.75;84.84;76763.22;5019458;28;19913;-77
2021/08/20 02:53:35;;;;;;;;;;;;;;;-142.75;85.29;76759.28;5017406;28;20025;-79
2021/08/20 02:56:01;;;;;;;33.15;19.77;;;;;;;-142.75;85.56;76763.22;5024402;28;20115;-77
2021/08/20 02:58:26;;;;;;;;;;;;;;;-142.75;86.04;76771.09;5017605;28;20061;-78
2021/08/20 03:00:51;;;;;;;35.00;19.48;;;;;;;-142.75;86.34;76773.06;5017683;28;19913;-78
2021/08/20 03:03:17;;;;;;;;;;;;;;;-142.75;86.50;76782.91;5024676;28;20013;-79
2021/08/20 03:05:42;;;;;;;28.85;18.48;;;;;;;-142.75;86.68;76782.91;5026232;28;19962;-78
2021/08/20 03:08:07;;;;;;;;;;;;;;;-142.75;86.82;76784.88;5015289;28;20034;-76
2021/08/20 03:10:33;;;;;;;35.13;18.95;;;;;;;-142.75;86.87;76802.56;5020286;28;19970;-77
2021/08/20 03:12:58;;;;;;;;;;;;;;;-142.75;86.89;76806.50;5018236;28;20038;-79
2021/08/20 03:15:24;;;;;;;36.92;19.92;;;;;;;-142.75;86.86;76810.44;5052594;28;20008;-78
2021/08/20 03:17:49;;;;;;;;;;;;;;;-142.75;87.00;76806.50;5016963;28;20038;-79
2021/08/20 03:20:14;;;;;;;37.53;21.27;;;;;;;-142.75;87.05;76814.38;5022619;28;20443;-78
2021/08/20 03:22:39;;;;;;;;;;;;;;;-142.75;87.31;76814.38;5017611;28;20406;-79
2021/08/20 03:25:05;;;;;;;34.70;20.30;;;;;;;-142.75;87.40;76814.38;5025042;28;19912;-78
2021/08/20 03:27:30;;;;;;;;;;;;;;;-142.75;87.55;76810.44;5026667;28;20501;-81
2021/08/20 03:29:55;;;;;;;34.50;21.50;;;;;;;-142.75;87.55;76822.25;5020222;28;19913;-79
2021/08/20 03:32:21;;;;;;;;;;;;;;;-142.75;87.79;76814.38;5024500;28;20082;-79
2021/08/20 03:34:46;;;;;;;35.92;19.55;;;;;;;-142.75;87.97;76814.38;5024823;28;19917;-79
2021/08/20 03:37:11;;;;;;;;;;;;;;;-142.75;88.02;76810.44;5024955;28;20065;-79
2021/08/20 03:39:36;;;;;;;33.97;20.75;;;;;;;-142.75;88.24;76814.38;5015756;28;19948;-78
2021/08/20 03:42:02;;;;;;;;;;;;;;;-142.75;88.36;76810.44;5020947;28;20042;-79
2021/08/20 03:44:27;;;;;;;43.28;21.40;;;;;;;-142.75;88.93;76804.53;5043451;28;20367;-78
2021/08/20 03:46:53;;;;;;;;;;;;;;;-142.75;89.26;76810.44;5045175;28;20041;-79
2021/08/20 03:49:18;;;;;;;30.60;18.48;;;;;;;-142.75;89.45;76816.34;5050018;28;19936;-79
2021/08/20 03:51:43;;;;;;;;;;;;;;;-142.75;89.48;76816.34;5019321;28;20038;-79
2021/08/20 03:54:10;;;;;;;35.00;20.33;;;;;;;-142.75;89.59;76826.19;5014735;28;19918;-78
2021/08/20 03:56:36;;;;;;;41.08;20.15;;;;;;;-142.75;89.64;76824.22;5022814;28;20101;-80
2021/08/20 03:59:01;;;;;;;;;;;;;;;-142.75;89.86;76824.22;5020049;28;20113;-78
2021/08/20 04:01:26;;;;;;;37.03;20.50;;;;;;;-142.75;90.34;76814.38;5020632;28;20370;-78
2021/08/20 04:03:51;;;;;;;;;;;;;;;-142.75;90.58;76810.44;5020628;28;20025;-78
2021/08/20 04:06:19;;;;;;;36.70;19.35;;;;;;;-142.75;90.82;76810.44;5024337;28;19919;-79
2021/08/20 04:08:45;;;;;;;39.60;20.48;;;;;;;-142.75;91.22;76796.69;5017773;28;20505;-78
2021/08/20 04:11:11;;;;;;;;;;;;;;;-142.75;91.23;76792.75;5020630;28;20025;-79
2021/08/20 04:13:37;;;;;;;37.88;19.08;;;;;;;-142.75;91.39;76794.69;5023543;28;20401;-79
2021/08/20 04:16:02;;;;;;;40.78;19.58;;;;;;;-142.75;91.60;76788.81;5023041;28;20034;-77
2021/08/20 04:18:28;;;;;;;;;;;;;;;-142.75;91.63;76790.78;5024777;28;20021;-79
2021/08/20 04:20:53;;;;;;;33.42;19.25;;;;;;;-142.75;91.51;76786.84;5022629;28;19921;-78
2021/08/20 04:23:18;;;;;;;;;;;;;;;-142.75;91.89;76784.88;5052760;28;20121;-78
2021/08/20 04:25:43;;;;;;;39.28;19.05;;;;;;;-142.75;92.12;76782.91;5019459;28;20390;-79
2021/08/20 04:28:09;;;;;;;;;;;;;;;-142.75;92.16;76775.03;5037076;28;20546;-79
2021/08/20 04:30:34;;;;;;;32.30;17.80;;;;;;;-142.75;92.23;76780.94;5018258;28;19913;-78
2021/08/20 04:32:59;;;;;;;;;;;;;;;-142.75;92.37;76771.09;5014565;28;20059;-78
2021/08/20 04:35:27;;;;;;;41.28;20.15;;;;;;;-142.75;92.57;76763.22;5020623;28;19920;-79
2021/08/20 04:37:53;;;;;;;40.08;20.65;;;;;;;-142.75;92.92;76761.25;5045474;28;20032;-78
2021/08/20 04:40:18;;;;;;;;;;;;;;;-142.75;93.08;76755.34;5015994;28;20022;-79
2021/08/20 04:42:43;;;;;;;40.75;19.17;;;;;;;-142.75;93.23;76751.41;5017170;28;20332;-77
2021/08/20 04:45:09;;;;;;;;;;;;;;;-142.75;93.33;76755.34;5018783;28;20026;-79
2021/08/20 04:47:34;;;;;;;32.88;18.42;;;;;;;-142.75;93.39;76759.28;5057734;28;19914;-79
2021/08/20 04:49:59;;;;;;;;;;;;;;;-142.75;93.49;76747.47;5036727;22;20080;-79
2021/08/20 04:52:25;;;;;;;39.90;19.25;;;;;;;-142.75;93.43;76747.47;4985924;28;19929;-81
2021/08/20 04:54:50;;;;;;;;;;;;;;;-142.75;93.49;76743.53;5048339;28;20031;-80
2021/08/20 04:57:15;;;;;;;35.33;18.15;;;;;;;-142.75;93.38;76741.56;4979740;28;19918;-81
2021/08/20 04:59:41;;;;;;;;;;;;;;;-142.75;93.31;76737.63;4983038;28;20027;-81
2021/08/20 05:02:06;;;;;;;36.00;17.75;;;;;;;-142.75;93.34;76735.66;4985086;28;19936;-80
2021/08/20 05:04:34;;;;;;;;;;;;;;;-142.75;93.23;76731.72;4983048;28;20472;-78
2021/08/20 05:06:59;;;;;;;30.88;17.75;;;;;;;-142.75;93.07;76721.88;4987766;28;19917;-80
2021/08/20 05:09:25;;;;;;;;;;;;;;;-142.75;92.92;76708.09;5047962;28;20052;-80
2021/08/20 05:11:50;;;;;;;32.60;19.00;;;;;;;-142.75;92.88;76727.78;4981000;28;20335;-81
2021/08/20 05:14:16;;;;;;;;;;;;;;;-142.75;92.97;76729.75;5045234;28;20018;-80
2021/08/20 05:16:41;;;;;;;36.63;17.45;;;;;;;-142.75;93.07;76727.78;4978568;28;19921;-80
2021/08/20 05:19:06;;;;;;;;;;;;;;;-142.75;92.93;76725.81;4980921;28;20064;-80
2021/08/20 05:21:32;;;;;;;36.67;18.17;;;;;;;-142.75;93.04;76727.78;4980390;28;19997;-79
2021/08/20 05:23:57;;;;;;;;;;;;;;;-142.75;92.88;76731.72;4978642;28;20437;-80
2021/08/20 05:26:22;;;;;;;29.08;16.73;;;;;;;-142.75;92.92;76727.78;4978679;28;20438;-80
2021/08/20 05:28:47;;;;;;;;;;;;;;;-142.75;92.87;76719.91;4981604;28;20036;-80
2021/08/20 05:31:13;;;;;;;32.17;17.75;;;;;;;-142.75;92.86;76719.91;4976568;28;19914;-80
2021/08/20 05:33:38;;;;;;;;;;;;;;;-142.75;92.87;76719.91;5044155;28;20121;-80
2021/08/20 05:36:03;;;;;;;35.13;18.08;;;;;;;-142.75;92.69;76719.91;4979761;28;20288;-80
2021/08/20 05:38:28;;;;;;;;;;;;;;;-142.75;92.65;76704.16;4980976;28;20080;-80
2021/08/20 05:40:54;;;;;;;32.17;16.92;;;;;;;-142.75;92.73;76704.16;4982862;28;20361;-79
2021/08/20 05:43:19;;;;;;;;;;;;;;;-142.75;92.40;76706.13;4980200;28;20026;-82
2021/08/20 05:45:44;;;;;;;30.83;16.42;;;;;;;-142.75;92.16;76708.09;5047887;28;20433;-79
2021/08/20 05:48:11;;;;;;;;;;;;;;;-142.75;91.98;76700.22;4985058;28;20022;-78
2021/08/20 05:50:36;;;;;;;28.80;17.20;;;;;;;-142.75;91.88;76708.09;4979176;28;19981;-78
2021/08/20 05:53:02;;;;;;;;;;;;;;;-142.75;91.70;76700.22;4987246;28;20114;-81
2021/08/20 05:55:30;;;;;;;30.27;17.00;;;;;;;-142.75;91.56;76698.25;5050518;28;20387;-79
2021/08/20 05:57:56;;;;;;;32.58;16.63;;;;;;;-142.75;91.51;76688.41;5046662;28;20057;-80
2021/08/20 06:00:21;;;;;;;32.17;16.17;;;;;;;-142.75;91.41;76676.59;4976297;28;20023;-79
2021/08/20 06:02:47;;;;;;;;;;;;;;;-142.75;91.09;76672.66;5044253;28;20102;-79
2021/08/20 06:05:12;;;;;;;27.50;15.68;;;;;;;-142.75;90.86;76666.75;4975497;28;19942;-78
2021/08/20 06:07:37;;;;;;;;;;;;;;;-142.75;90.62;76654.94;5046319;28;20084;-82
2021/08/20 06:10:05;;;;;;;27.33;16.15;;;;;;;-142.75;90.25;76668.72;4975573;28;19914;-80
2021/08/20 06:12:31;;;;;;;31.70;15.73;;;;;;;-142.75;90.17;76662.81;5040759;28;20022;-79
2021/08/20 06:14:57;;;;;;;26.58;15.73;;;;;;;-142.75;89.90;76658.88;4974923;28;20042;-79
2021/08/20 06:17:22;;;;;;;27.38;15.80;;;;;;;-142.75;89.52;76651.00;5044257;28;20035;-79
2021/08/20 06:19:48;;;;;;;27.40;15.73;;;;;;;-142.75;89.13;76637.22;4969273;28;20029;-80
2021/08/20 06:22:13;;;;;;;24.42;14.90;;;;;;;-142.75;88.70;76631.31;4978662;28;20054;-80
2021/08/20 06:24:38;;;;;;;;;;;;;;;-142.75;88.21;76619.50;5041327;28;20023;-81
2021/08/20 06:27:05;;;;;;;24.20;15.15;;;;;;;-142.75;87.88;76621.47;5047985;28;20417;-79
2021/08/20 06:29:30;;;;;;;22.30;15.07;;;;;;;-142.75;87.56;76615.56;4975850;28;20029;-79
2021/08/20 06:31:55;;;;;;;23.35;15.55;;;;;;;-142.75;87.34;76611.63;5039648;28;20023;-82
2021/08/20 06:34:21;;;;;;;23.58;15.15;;;;;;;-142.75;87.16;76588.00;4976571;28;20026;-79
2021/08/20 06:36:46;;;;;;;;;;;;;;;-142.75;86.78;76566.34;5051251;28;20022;-79
2021/08/20 06:39:12;;;;;;;25.40;15.93;;;;;;;-142.75;86.16;76562.41;4983980;28;19921;-79
2021/08/20 06:41:37;;;;;;;;;;;;;;;-142.75;85.15;76534.84;4985415;28;20028;-80
2021/08/20 06:44:03;;;;;;;25.58;16.35;;;;;;;-142.75;83.85;76527.00;4979600;28;20008;-79
2021/08/20 06:46:28;;;;;;;24.35;16.52;;;;;;;-142.75;82.96;76503.38;4974354;28;20106;-77
2021/08/20 06:48:53;;;;;;;;;;;;;;;-142.75;81.79;76465.97;5054046;28;20038;-80
2021/08/20 06:51:18;;;;;;;26.98;16.35;;;;;;;-142.75;80.72;76450.22;4980256;28;20058;-79
2021/08/20 06:53:44;;;;;;;20.98;14.85;;;;;;;-142.75;79.78;76442.34;4981186;28;20678;-79
2021/08/20 06:56:09;;;;;;;25.13;15.15;;;;;;;-142.75;79.33;76448.25;4972612;28;20030;-79
2021/08/20 06:58:34;;;;;;;22.10;15.10;;;;;;;-142.75;78.48;76430.53;4972557;28;20037;-79
2021/08/20 07:01:00;;;;;;;25.35;15.35;;;;;;;-142.75;78.60;76391.16;5034978;28;20080;-79
2021/08/20 07:03:25;;;;;;;21.40;14.57;;;;;;;-142.75;77.28;76357.69;4974769;28;20566;-80
2021/08/20 07:05:50;;;;;;;23.42;15.10;;;;;;;-142.75;75.86;76338.03;4972222;28;20101;-79
2021/08/20 07:08:16;;;;;;;22.13;14.77;;;;;;;-142.75;74.35;76308.50;4965880;28;20109;-79
2021/08/20 07:10:41;;;;;;;22.23;14.05;;;;;;;-142.75;73.72;76298.66;4973835;28;20027;-80
2021/08/20 07:13:07;;;;;;;22.42;14.13;;;;;;;-142.75;72.73;76269.13;4978463;28;20080;-79
2021/08/20 07:15:33;;;;;;;20.38;14.05;;;;;;;-142.75;72.35;76261.25;5039845;28;20157;-78
2021/08/20 07:17:58;;;;;;;20.80;13.30;;;;;;;-142.75;71.47;76243.53;4970031;28;20064;-78
2021/08/20 07:20:24;;;;;;;20.35;13.75;;;;;;;-142.75;70.84;76247.47;4968106;28;20069;-79
2021/08/20 07:22:49;;;;;;;22.42;12.82;;;;;;;-142.75;71.02;76278.97;4973152;28;20440;-77
2021/08/20 07:25:14;;;;;;;20.05;11.85;;;;;;;-142.75;71.53;76290.78;4970479;28;20105;-79
2021/08/20 07:27:40;;;;;;;17.67;13.00;;;;;;;-142.75;71.48;76312.44;4988652;28;20031;-78
2021/08/20 07:30:06;;;;;;;22.45;12.73;;;;;;;-142.75;71.67;76300.63;4984902;28;20117;-80
2021/08/20 07:32:32;;;;;;;23.08;11.68;;;;;;;-142.75;72.38;76267.16;4982928;28;20026;-79
2021/08/20 07:34:57;;;;;;;16.55;10.93;;;;;;;-142.75;72.04;76235.66;5051040;28;20511;-78
2021/08/20 07:37:23;;;;;;;16.90;10.85;;;;;;;-142.75;69.71;76214.00;4989124;28;20515;-80
2021/08/20 07:39:49;;;;;;;16.38;9.85;;;;;;;-142.75;68.84;76212.03;4985351;28;20135;-78
2021/08/20 07:42:14;;;;;;;15.02;9.60;;;;;;;-142.75;68.58;76217.94;4985107;28;20034;-79
2021/08/20 07:44:39;;;;;;;14.50;9.70;;;;;;;-142.75;69.05;76227.78;5041944;28;20022;-79
2021/08/20 07:47:05;;;;;;;16.27;9.80;;;;;;;-142.75;68.69;76237.63;4972879;28;20023;-78
2021/08/20 07:49:30;;;;;;;12.55;9.02;;;;;;;-142.75;69.27;76176.63;5058239;28;20503;-79
2021/08/20 07:51:57;;;;;;;13.73;9.32;;;;;;;-142.75;67.23;76164.81;4989515;28;20040;-79
2021/08/20 07:54:23;;;;;;;16.13;9.60;;;;;;;-142.75;66.23;76162.84;5049017;28;20400;-79
2021/08/20 07:56:48;;;;;;;13.15;9.55;;;;;;;-142.75;66.08;76196.31;4990140;28;20634;-78
2021/08/20 07:59:14;;;;;;;15.52;9.82;;;;;;;-142.75;66.32;76196.31;5046044;28;20046;-78
2021/08/20 08:01:39;;;;;;;19.17;9.52;;;;;;;-142.75;66.05;76188.44;4988627;28;20090;-79
2021/08/20 08:04:04;;;;;;;13.98;9.55;;;;;;;-142.75;65.89;76188.44;5046275;28;20019;-79
2021/08/20 08:06:29;;;;;;;16.38;10.18;;;;;;;-142.75;65.96;76188.44;5039769;28;20034;-78
2021/08/20 08:08:55;;;;;;;13.05;9.75;;;;;;;-142.75;65.75;76174.66;5048049;28;20454;-81
2021/08/20 08:11:20;;;;;;;15.38;9.90;;;;;;;-142.75;65.65;76170.72;5041214;28;20083;-81
2021/08/20 08:13:46;;;;;;;19.67;9.65;;;;;;;-142.75;66.64;76125.44;5056886;28;20019;-79
2021/08/20 08:16:11;;;;;;;14.25;9.23;;;;;;;-142.75;64.14;76119.53;4986442;28;20026;-80
2021/08/20 08:18:36;;;;;;;14.00;9.63;;;;;;;-142.75;64.03;76117.56;5042993;28;20030;-80
2021/08/20 08:21:02;;;;;;;17.08;9.95;;;;;;;-142.75;64.18;76093.94;4992720;28;20479;-80
2021/08/20 08:23:27;;;;;;;14.05;9.05;;;;;;;-142.75;63.41;76011.28;5062070;28;20543;-80
2021/08/20 08:25:53;;;;;;;9.88;7.75;;;;;;;-142.75;62.08;75814.47;5049624;28;20026;-78
2021/08/20 08:28:22;;;;;;;10.55;6.20;;;;;;;-142.75;53.63;75653.09;4996127;28;20053;-80
2021/08/20 08:30:49;;;;;;;9.32;5.30;;;;;;;-142.75;53.82;75501.56;5055535;28;20246;-79
2021/08/20 08:33:16;;;;;;;8.88;4.78;;;;;;;-142.75;50.11;75424.81;4993294;28;20114;-79
2021/08/20 08:35:42;;;;;;;6.97;4.53;;;;;;;-142.75;48.49;75334.28;4990213;28;20106;-80
2021/08/20 08:38:12;;;;;;;8.57;3.75;;;;;;;-142.75;46.76;75302.78;5040294;28;20473;-79
2021/08/20 08:40:42;;;;;;;8.18;4.22;;;;;;;-142.75;46.93;75424.81;5048892;28;20031;-79
2021/08/20 08:43:08;;;;;;;10.25;4.53;;;;;;;-142.75;47.55;75385.44;4986519;28;20019;-78
2021/08/20 08:45:34;;;;;;;8.90;4.93;;;;;;;-142.75;46.92;75487.78;4989559;28;20527;-79
2021/08/20 08:48:02;;;;;;;9.75;4.25;;;;;;;-142.75;48.21;75405.13;5062606;28;20022;-80
2021/08/20 08:50:29;;;;;;;9.38;3.53;;;;;;;-142.75;46.57;75432.69;4981179;28;20035;-78
2021/08/20 08:52:54;;;;;;;7.25;3.53;;;;;;;-142.75;46.78;75515.31;5049610;28;20035;-78
2021/08/20 08:55:19;;;;;;;5.72;2.53;;;;;;;-142.75;47.82;75568.47;5058424;28;20049;-79
2021/08/20 08:57:45;;;;;;;9.18;2.80;;;;;;;-142.75;48.87;75515.31;4980627;28;20116;-80
2021/08/20 09:00:11;;;;;;;9.07;3.20;;;;;;;-142.75;48.78;75365.75;4995753;28;20048;-79
2021/08/20 09:02:36;;;;;;;5.68;2.70;;;;;;;-142.75;44.05;75255.56;4996029;28;20080;-77
2021/08/20 09:05:10;;;;;;;7.35;3.00;;;;;;;-142.75;44.28;75174.88;5053751;28;20026;-78
2021/08/20 09:07:35;;;;;;;7.57;3.55;;;;;;;-142.75;41.37;75133.56;5061036;28;20019;-77
2021/08/20 09:10:19;;;;;;;5.70;3.65;;;;;;;-142.75;41.63;75015.50;5050246;28;20114;-78
2021/08/20 09:12:57;;;;;;;7.90;3.72;;;;;;;-142.75;41.34;75001.72;4986603;28;20523;-79
2021/08/20 09:15:30;;;;;;;7.63;3.70;;;;;;;-142.75;41.48;74958.44;4988723;28;20034;-79
2021/08/20 09:18:00;;;;;;;7.57;3.67;;;;;;;-142.75;39.68;74875.78;4990496;28;20026;-79
2021/08/20 09:20:33;;;;;;;6.28;3.65;;;;;;;-142.75;39.21;74814.78;4997307;28;20047;-76
2021/08/20 09:23:02;;;;;;;6.45;3.50;;;;;;;-142.75;38.17;74875.78;5051926;28;20023;-79
2021/08/20 09:25:43;;;;;;;7.43;3.80;;;;;;;-142.75;40.53;74995.81;4984076;28;20591;-80
2021/08/20 09:28:14;;;;;;;6.30;2.92;;;;;;;-142.75;39.17;74889.56;5045011;28;20422;-79
2021/08/20 09:30:41;;;;;;;9.68;3.85;;;;;;;-142.75;37.54;74919.09;5054613;28;20042;-79
2021/08/20 09:33:12;;;;;;;7.40;3.00;;;;;;;-142.75;37.32;74891.53;4993358;28;20022;-81
2021/08/20 09:35:39;;;;;;;6.93;4.25;;;;;;;-142.75;39.41;75143.41;4986921;28;20034;-80
2021/08/20 09:38:13;;;;;;;6.18;3.97;;;;;;;-142.75;40.41;75222.13;4978524;28;20030;-78
2021/08/20 09:40:50;;;;;;;5.25;2.90;;;;;;;-142.75;42.26;75375.59;4985355;28;20488;-79
2021/08/20 09:43:24;;;;;;;5.75;3.67;;;;;;;-142.75;42.36;75430.72;4984225;28;20036;-79
2021/08/20 09:45:57;;;;;;;5.93;3.50;;;;;;;-142.75;42.46;75216.22;4978483;28;20031;-80
2021/08/20 09:48:46;;;;;;;4.50;3.45;;;;;;;-142.75;41.07;75082.41;4983308;28;20041;-79
2021/08/20 09:51:30;;;;;;;6.53;3.38;;;;;;;-142.75;38.42;74968.28;4980777;28;20022;-79
2021/08/20 09:54:00;;;;;;;5.13;3.60;;;;;;;-142.75;36.94;74897.44;5044962;28;20039;-79
2021/08/20 09:56:26;;;;;;;5.70;3.70;;;;;;;-142.75;37.80;74779.38;4978806;28;20034;-78
2021/08/20 09:58:54;;;;;;;5.57;3.63;;;;;;;-142.75;35.73;74722.31;4988340;28;20650;-78
2021/08/20 10:01:21;;;;;;;7.18;4.40;;;;;;;-142.75;36.10;74787.25;5050495;28;20699;-77
2021/08/20 10:03:47;;;;;;;5.82;3.38;;;;;;;-142.75;35.67;74698.72;5060893;28;20035;-78
2021/08/20 10:06:14;;;;;;;5.78;3.05;;;;;;;-142.75;34.80;74753.81;4984399;28;20027;-78
2021/08/20 10:08:40;;;;;;;6.30;3.13;;;;;;;-142.75;34.58;74869.88;5047377;28;20035;-78
2021/08/20 10:11:06;;;;;;;7.10;4.20;;;;;;;-142.75;36.96;75088.31;4974804;28;20086;-77
2021/08/20 10:13:32;;;;;;;9.38;4.43;;;;;;;-142.75;38.46;75202.44;4987319;28;20050;-78
2021/08/20 10:16:01;;;;;;;6.85;5.40;;;;;;;-142.75;40.99;75426.78;4982343;28;20027;-79
2021/08/20 10:18:29;;;;;;;8.60;6.18;;;;;;;-142.75;42.62;75464.16;4984008;28;20045;-79
2021/08/20 10:20:55;;;;;;;7.13;5.93;;;;;;;-142.75;44.46;75385.44;4984515;28;20038;-78
2021/08/20 10:23:20;;;;;;;9.98;8.02;;;;;;;-142.75;41.24;75202.44;4985764;28;20050;-78
2021/08/20 10:25:46;;;;;;;9.27;7.60;;;;;;;-142.75;39.52;75170.94;5053593;28;20025;-78
2021/08/20 10:28:13;;;;;;;9.55;7.15;;;;;;;-142.75;38.09;75039.13;5047425;28;20026;-78
2021/08/20 10:30:43;;;;;;;8.90;6.35;;;;;;;-142.75;37.05;74889.56;4975476;28;20056;-79
2021/08/20 10:33:08;;;;;;;8.13;6.55;;;;;;;-142.75;36.92;74948.59;5070110;28;20046;-77
2021/08/20 10:35:51;;;;;;;9.35;6.38;;;;;;;-142.75;37.60;75029.28;4977397;28;20484;-76
2021/08/20 10:38:38;;;;;;;8.65;5.28;;;;;;;-142.75;39.23;75100.09;4981376;28;20053;-76
2021/08/20 10:41:09;;;;;;;8.13;5.50;;;;;;;-142.75;38.53;75143.41;4986759;28;20537;-74
2021/08/20 10:43:54;;;;;;;7.63;5.28;;;;;;;-142.75;37.74;75001.72;4983114;28;20034;-75
2021/08/20 10:46:34;;;;;;;6.80;5.00;;;;;;;-142.75;37.77;74968.28;4975819;28;20403;-76
2021/08/20 10:49:17;;;;;;;8.25;5.55;;;;;;;-142.75;35.98;74793.16;4984445;28;20030;-77
2021/08/20 10:51:48;;;;;;;6.70;5.22;;;;;;;-142.75;35.18;74846.28;5004184;23;20499;-77
2021/08/20 10:54:14;;;;;;;8.63;5.15;;;;;;;-142.75;37.92;75011.56;4983368;28;20053;-79
2021/08/20 10:56:39;;;;;;;7.28;5.13;;;;;;;-142.75;37.66;75109.94;4964431;28;20030;-79
2021/08/20 10:59:04;;;;;;;7.00;5.13;;;;;;;-142.75;39.58;75192.59;4979224;28;20030;-79
2021/08/20 11:01:30;;;;;;;6.93;4.90;;;;;;;-142.75;39.77;75088.31;4959378;28;20053;-79
2021/08/20 11:03:55;;;;;;;6.95;5.28;;;;;;;-142.75;38.75;75041.09;4991087;28;20084;-78
2021/08/20 11:06:46;;;;;;;7.30;4.95;;;;;;;-142.75;38.65;74972.22;4973944;28;20029;-81
2021/08/20 11:09:26;;;;;;;7.47;5.55;;;;;;;-142.75;36.82;74928.91;4973441;28;20037;-78
2021/08/20 11:11:52;;;;;;;7.13;5.20;;;;;;;-142.75;37.25;74810.88;4972200;28;20404;-78
2021/08/20 11:14:32;;;;;;;7.43;5.32;;;;;;;-142.75;35.80;74799.06;4973527;28;20455;-78
2021/08/20 11:16:59;;;;;;;10.10;4.82;;;;;;;-142.75;35.21;74749.88;4991449;28;20483;-77
2021/08/20 11:19:50;;;;;;;6.30;3.70;;;;;;;-142.75;34.10;74712.47;4973600;28;20130;-79
2021/08/20 11:22:21;;;;;;;7.45;3.92;;;;;;;-142.75;34.68;74791.19;4991277;28;20396;-80